createdAt,value
2018-07-17T00:00:13.271Z,17.91
2018-07-17T00:02:42.267Z,17.88
2018-07-17T00:05:11.515Z,17.88
2018-07-17T00:07:40.854Z,17.82
2018-07-17T00:10:10.206Z,17.78
2018-07-17T00:12:39.381Z,17.77
2018-07-17T00:15:08.574Z,17.73
2018-07-17T00:17:38.115Z,17.70
2018-07-17T00:20:07.419Z,17.72
2018-07-17T00:22:36.564Z,17.61
2018-07-17T00:25:05.783Z,17.60
2018-07-17T00:27:34.854Z,17.53
2018-07-17T00:30:04.238Z,17.54
2018-07-17T00:32:34.042Z,17.51
2018-07-17T00:35:03.395Z,17.47
2018-07-17T00:37:32.680Z,17.44
2018-07-17T00:40:01.768Z,17.46
2018-07-17T00:42:31.001Z,17.37
2018-07-17T00:45:00.191Z,17.28
2018-07-17T00:47:29.296Z,17.29
2018-07-17T00:49:58.479Z,17.31
2018-07-17T00:52:27.687Z,17.34
2018-07-17T00:54:56.744Z,17.26
2018-07-17T00:57:25.999Z,17.22
2018-07-17T00:59:54.935Z,17.15
2018-07-17T01:02:29.389Z,17.15
2018-07-17T01:05:03.861Z,17.12
2018-07-17T01:07:38.073Z,17.18
2018-07-17T01:10:12.675Z,17.15
2018-07-17T01:12:40.973Z,17.15
2018-07-17T01:15:14.159Z,17.09
2018-07-17T01:17:43.488Z,17.09
2018-07-17T01:20:12.737Z,17.06
2018-07-17T01:22:42.008Z,17.10
2018-07-17T01:25:11.339Z,17.01
2018-07-17T01:27:40.376Z,16.99
2018-07-17T01:30:09.628Z,17.01
2018-07-17T01:32:38.823Z,16.91
2018-07-17T01:35:07.941Z,16.90
2018-07-17T01:37:37.094Z,16.90
2018-07-17T01:40:06.328Z,16.89
2018-07-17T01:42:35.472Z,16.85
2018-07-17T01:45:04.677Z,16.81
2018-07-17T01:47:33.972Z,16.83
2018-07-17T01:50:03.390Z,16.88
2018-07-17T01:52:32.508Z,16.84
2018-07-17T01:55:01.667Z,16.85
2018-07-17T01:57:30.795Z,16.85
2018-07-17T01:59:59.955Z,16.78
2018-07-17T02:02:29.199Z,16.76
2018-07-17T02:04:58.246Z,16.77
2018-07-17T02:07:27.213Z,16.78
2018-07-17T02:09:56.400Z,16.74
2018-07-17T02:12:25.790Z,16.76
2018-07-17T02:14:55.042Z,16.69
2018-07-17T02:17:24.285Z,16.71
2018-07-17T02:19:53.443Z,16.66
2018-07-17T02:22:22.778Z,16.67
2018-07-17T02:24:52.326Z,16.67
2018-07-17T02:27:22.712Z,16.64
2018-07-17T02:29:52.071Z,16.66
2018-07-17T02:32:21.308Z,16.64
2018-07-17T02:34:50.479Z,16.57
2018-07-17T02:37:20.106Z,16.53
2018-07-17T02:39:49.278Z,16.54
2018-07-17T02:42:18.546Z,16.53
2018-07-17T02:44:47.879Z,16.56
2018-07-17T02:47:17.233Z,16.46
2018-07-17T02:49:46.501Z,16.47
2018-07-17T02:52:15.856Z,16.47
2018-07-17T02:54:45.224Z,16.48
2018-07-17T02:57:14.622Z,16.45
2018-07-17T02:59:43.848Z,16.47
2018-07-17T03:02:13.228Z,16.50
2018-07-17T03:04:42.495Z,16.46
2018-07-17T03:07:11.717Z,16.39
2018-07-17T03:09:40.899Z,16.48
2018-07-17T03:12:10.015Z,16.47
2018-07-17T03:14:39.297Z,16.47
2018-07-17T03:17:08.571Z,16.40
2018-07-17T03:19:37.806Z,16.42
2018-07-17T03:22:07.021Z,16.40
2018-07-17T03:24:36.128Z,16.41
2018-07-17T03:27:05.300Z,16.41
2018-07-17T03:29:34.479Z,16.46
2018-07-17T03:32:03.720Z,16.52
2018-07-17T03:34:32.881Z,16.54
2018-07-17T03:37:02.108Z,16.61
2018-07-17T03:39:31.477Z,16.61
2018-07-17T03:42:00.815Z,16.70
2018-07-17T03:44:29.980Z,16.72
2018-07-17T03:46:59.191Z,16.75
2018-07-17T03:49:28.816Z,16.83
2018-07-17T03:51:57.987Z,16.86
2018-07-17T03:54:27.263Z,16.91
2018-07-17T03:56:56.756Z,17.02
2018-07-17T03:59:26.039Z,17.05
2018-07-17T04:04:50.805Z,17.09
2018-07-17T04:07:20.211Z,17.15
2018-07-17T04:09:49.440Z,17.20
2018-07-17T04:12:18.819Z,17.29
2018-07-17T04:14:48.023Z,17.29
2018-07-17T04:17:17.449Z,17.30
2018-07-17T04:19:46.575Z,17.33
2018-07-17T04:22:15.839Z,17.38
2018-07-17T04:24:45.331Z,17.60
2018-07-17T04:27:14.411Z,17.63
2018-07-17T04:29:43.616Z,17.65
2018-07-17T04:32:13.018Z,17.74
2018-07-17T04:34:42.216Z,17.78
2018-07-17T04:37:11.515Z,17.81
2018-07-17T04:39:40.578Z,17.85
2018-07-17T04:42:09.791Z,17.95
2018-07-17T04:44:38.855Z,18.02
2018-07-17T04:47:08.122Z,18.12
2018-07-17T04:49:37.267Z,18.20
2018-07-17T04:52:06.634Z,18.39
2018-07-17T04:54:35.763Z,18.49
2018-07-17T04:57:04.978Z,18.61
2018-07-17T04:59:34.252Z,18.77
2018-07-17T05:02:03.549Z,18.65
2018-07-17T05:04:32.746Z,18.66
2018-07-17T05:07:02.030Z,18.69
2018-07-17T05:09:31.276Z,18.80
2018-07-17T05:12:00.496Z,18.87
2018-07-17T05:14:29.771Z,18.89
2018-07-17T05:17:01.006Z,19.09
2018-07-17T05:19:30.222Z,19.17
2018-07-17T05:21:59.424Z,19.11
2018-07-17T05:24:28.707Z,19.09
2018-07-17T05:26:57.811Z,19.16
2018-07-17T05:29:27.071Z,19.28
2018-07-17T05:31:56.210Z,19.37
2018-07-17T05:34:25.295Z,19.41
2018-07-17T05:36:54.614Z,19.43
2018-07-17T05:39:23.899Z,19.76
2018-07-17T05:41:53.122Z,19.80
2018-07-17T05:44:22.807Z,19.72
2018-07-17T05:46:52.766Z,19.97
2018-07-17T05:49:22.486Z,19.84
2018-07-17T05:51:52.258Z,19.97
2018-07-17T05:54:21.459Z,20.01
2018-07-17T05:56:50.767Z,20.00
2018-07-17T05:59:21.123Z,20.11
2018-07-17T06:01:51.379Z,20.23
2018-07-17T06:04:20.774Z,20.26
2018-07-17T06:06:50.539Z,20.27
2018-07-17T06:09:19.600Z,20.26
2018-07-17T06:11:49.967Z,20.57
2018-07-17T06:14:19.604Z,20.46
2018-07-17T06:16:49.042Z,20.55
2018-07-17T06:19:18.303Z,20.63
2018-07-17T06:21:47.547Z,20.65
2018-07-17T06:24:16.875Z,20.61
2018-07-17T06:26:46.183Z,20.74
2018-07-17T06:29:15.311Z,20.84
2018-07-17T06:31:44.644Z,20.90
2018-07-17T06:34:14.175Z,21.14
2018-07-17T06:36:43.340Z,21.25
2018-07-17T06:39:12.724Z,21.43
2018-07-17T06:41:42.183Z,21.45
2018-07-17T06:44:11.460Z,21.63
2018-07-17T06:46:40.735Z,21.76
2018-07-17T06:49:09.926Z,21.98
2018-07-17T06:51:39.153Z,22.02
2018-07-17T06:54:08.218Z,22.01
2018-07-17T06:56:37.446Z,21.93
2018-07-17T06:59:06.613Z,22.10
2018-07-17T07:01:35.743Z,22.23
2018-07-17T07:04:04.919Z,22.48
2018-07-17T07:06:34.131Z,22.66
2018-07-17T07:09:03.641Z,22.55
2018-07-17T07:11:32.853Z,22.64
2018-07-17T07:14:02.192Z,22.66
2018-07-17T07:16:31.752Z,22.68
2018-07-17T07:19:00.869Z,22.97
2018-07-17T07:21:30.070Z,23.01
2018-07-17T07:23:59.443Z,23.48
2018-07-17T07:26:28.751Z,23.56
2018-07-17T07:28:58.125Z,23.60
2018-07-17T07:31:27.343Z,23.59
2018-07-17T07:33:56.644Z,23.63
2018-07-17T07:36:25.845Z,23.90
2018-07-17T07:38:55.142Z,24.01
2018-07-17T07:41:24.346Z,24.17
2018-07-17T07:43:53.543Z,24.15
2018-07-17T07:46:22.722Z,24.38
2018-07-17T07:48:52.020Z,24.44
2018-07-17T07:51:21.530Z,24.51
2018-07-17T07:53:50.631Z,24.73
2018-07-17T07:56:19.899Z,24.93
2018-07-17T07:58:49.228Z,24.49
2018-07-17T08:01:18.494Z,24.44
2018-07-17T08:03:47.767Z,24.84
2018-07-17T08:06:16.916Z,25.06
2018-07-17T08:08:46.135Z,24.99
2018-07-17T08:11:15.324Z,24.88
2018-07-17T08:13:44.617Z,24.81
2018-07-17T08:16:13.719Z,24.47
2018-07-17T08:18:42.876Z,24.65
2018-07-17T08:21:12.291Z,24.71
2018-07-17T08:23:41.608Z,24.72
2018-07-17T08:26:10.831Z,24.85
2018-07-17T08:28:39.979Z,24.83
2018-07-17T08:31:09.201Z,25.02
2018-07-17T08:33:38.375Z,24.80
2018-07-17T08:36:07.515Z,24.95
2018-07-17T08:38:36.479Z,25.24
2018-07-17T08:41:05.706Z,24.72
2018-07-17T08:43:34.900Z,24.59
2018-07-17T08:46:04.088Z,24.53
2018-07-17T08:48:33.424Z,24.61
2018-07-17T08:51:02.692Z,24.87
2018-07-17T08:53:31.787Z,24.98
2018-07-17T08:56:01.124Z,25.12
2018-07-17T08:58:30.356Z,25.21
2018-07-17T09:01:00.194Z,25.28
2018-07-17T09:03:29.264Z,25.75
2018-07-17T09:05:58.572Z,25.45
2018-07-17T09:08:27.974Z,25.67
2018-07-17T09:10:57.116Z,25.85
2018-07-17T09:13:26.352Z,25.95
2018-07-17T09:15:55.615Z,25.87
2018-07-17T09:18:24.998Z,26.37
2018-07-17T09:20:54.342Z,26.36
2018-07-17T09:23:23.567Z,26.32
2018-07-17T09:25:52.679Z,26.01
2018-07-17T09:28:21.941Z,26.37
2018-07-17T09:30:56.499Z,26.57
2018-07-17T09:33:25.724Z,26.21
2018-07-17T09:35:54.924Z,26.27
2018-07-17T09:38:24.322Z,26.48
2018-07-17T09:40:53.616Z,26.67
2018-07-17T09:43:22.896Z,26.73
2018-07-17T09:45:52.187Z,26.96
2018-07-17T09:48:21.500Z,26.76
2018-07-17T09:50:50.809Z,26.70
2018-07-17T09:53:20.005Z,26.76
2018-07-17T09:55:49.422Z,26.67
2018-07-17T09:58:18.612Z,26.67
2018-07-17T10:00:53.018Z,27.09
2018-07-17T10:03:22.424Z,27.10
2018-07-17T10:05:51.744Z,27.38
2018-07-17T10:08:20.909Z,27.64
2018-07-17T10:10:50.019Z,27.96
2018-07-17T10:13:19.430Z,27.95
2018-07-17T10:15:49.080Z,27.99
2018-07-17T10:18:18.366Z,28.35
2018-07-17T10:20:47.700Z,27.98
2018-07-17T10:23:17.011Z,28.11
2018-07-17T10:25:46.339Z,28.43
2018-07-17T10:28:15.504Z,28.16
2018-07-17T10:30:44.750Z,28.30
2018-07-17T10:33:14.010Z,28.60
2018-07-17T10:35:43.259Z,29.04
2018-07-17T10:38:12.529Z,28.83
2018-07-17T10:40:41.798Z,29.00
2018-07-17T10:43:11.111Z,29.58
2018-07-17T10:45:40.173Z,29.06
2018-07-17T10:48:09.288Z,29.95
2018-07-17T10:50:38.517Z,29.48
2018-07-17T10:53:07.799Z,30.15
2018-07-17T10:55:37.106Z,30.32
2018-07-17T10:58:06.304Z,30.01
2018-07-17T11:00:35.549Z,30.49
2018-07-17T11:03:04.599Z,30.83
2018-07-17T11:05:33.831Z,31.34
2018-07-17T11:08:02.783Z,31.68
2018-07-17T11:10:32.199Z,31.77
2018-07-17T11:13:01.294Z,32.57
2018-07-17T11:15:30.507Z,31.30
2018-07-17T11:17:59.690Z,31.98
2018-07-17T11:20:28.925Z,31.59
2018-07-17T11:22:58.085Z,32.22
2018-07-17T11:25:27.215Z,32.65
2018-07-17T11:27:56.584Z,32.90
2018-07-17T11:30:25.739Z,32.82
2018-07-17T11:32:54.899Z,32.26
2018-07-17T11:35:24.085Z,33.01
2018-07-17T11:37:54.080Z,32.65
2018-07-17T11:40:23.218Z,32.26
2018-07-17T11:42:52.401Z,32.60
2018-07-17T11:45:21.721Z,33.08
2018-07-17T11:47:50.763Z,33.44
2018-07-17T11:50:20.125Z,33.78
2018-07-17T11:52:49.286Z,34.57
2018-07-17T11:55:18.491Z,33.01
2018-07-17T11:57:47.688Z,33.60
2018-07-17T12:00:17.126Z,34.05
2018-07-17T12:02:46.430Z,33.44
2018-07-17T12:05:15.603Z,34.66
2018-07-17T12:07:44.556Z,33.58
2018-07-17T12:10:13.798Z,33.14
2018-07-17T12:12:43.211Z,33.92
2018-07-17T12:15:12.498Z,35.18
2018-07-17T12:17:41.751Z,34.32
2018-07-17T12:20:11.199Z,35.52
2018-07-17T12:22:40.271Z,35.22
2018-07-17T12:25:09.383Z,34.76
2018-07-17T12:27:38.559Z,34.97
2018-07-17T12:30:07.831Z,34.59
2018-07-17T12:32:37.137Z,34.54
2018-07-17T12:35:06.411Z,34.59
2018-07-17T12:37:35.639Z,34.98
2018-07-17T12:40:05.030Z,35.62
2018-07-17T12:42:34.253Z,35.55
2018-07-17T12:45:03.470Z,35.20
2018-07-17T12:47:32.743Z,35.45
2018-07-17T12:50:02.209Z,35.69
2018-07-17T12:52:31.352Z,35.87
2018-07-17T12:55:00.553Z,35.23
2018-07-17T12:57:29.670Z,35.11
2018-07-17T12:59:58.844Z,34.71
2018-07-17T13:02:27.984Z,34.25
2018-07-17T13:04:57.148Z,35.86
2018-07-17T13:07:26.554Z,35.60
2018-07-17T13:09:55.894Z,35.80
2018-07-17T13:12:25.065Z,35.59
2018-07-17T13:14:54.335Z,35.64
2018-07-17T13:17:27.187Z,36.06
2018-07-17T13:19:56.445Z,36.00
2018-07-17T13:22:25.751Z,35.73
2018-07-17T13:24:55.866Z,35.97
2018-07-17T13:27:26.968Z,35.19
2018-07-17T13:29:58.015Z,35.83
2018-07-17T13:32:27.929Z,37.29
2018-07-17T13:34:57.579Z,37.46
2018-07-17T13:37:27.833Z,36.10
2018-07-17T13:39:57.139Z,36.27
2018-07-17T13:42:26.428Z,36.43
2018-07-17T13:44:55.946Z,38.37
2018-07-17T13:47:25.195Z,37.39
2018-07-17T13:49:56.977Z,36.55
2018-07-17T13:52:26.372Z,37.72
2018-07-17T13:54:55.921Z,36.85
2018-07-17T13:57:25.286Z,37.11
2018-07-17T13:59:54.603Z,38.10
2018-07-17T14:02:23.958Z,38.11
2018-07-17T14:04:54.979Z,36.91
2018-07-17T14:07:24.323Z,37.46
2018-07-17T14:09:53.530Z,36.72
2018-07-17T14:12:22.936Z,37.65
2018-07-17T14:14:52.188Z,38.31
2018-07-17T14:17:21.548Z,38.39
2018-07-17T14:19:51.749Z,37.99
2018-07-17T14:22:21.027Z,38.50
2018-07-17T14:24:50.184Z,38.47
2018-07-17T14:27:19.515Z,34.79
2018-07-17T14:29:48.687Z,36.71
2018-07-17T14:32:17.940Z,37.43
2018-07-17T14:34:47.179Z,36.90
2018-07-17T14:37:16.423Z,36.69
2018-07-17T14:39:45.494Z,36.63
2018-07-17T14:42:14.735Z,36.34
2018-07-17T14:44:43.877Z,36.26
2018-07-17T14:47:13.352Z,35.11
2018-07-17T14:49:42.785Z,33.86
2018-07-17T14:52:12.200Z,33.39
2018-07-17T14:54:41.399Z,32.66
2018-07-17T14:57:10.617Z,33.01
2018-07-17T14:59:39.791Z,32.94
2018-07-17T15:02:09.151Z,32.34
2018-07-17T15:04:38.405Z,32.87
2018-07-17T15:07:07.498Z,31.87
2018-07-17T15:09:36.772Z,31.83
2018-07-17T15:12:07.026Z,32.21
2018-07-17T15:14:36.326Z,31.48
2018-07-17T15:17:05.474Z,32.03
2018-07-17T15:19:34.815Z,32.09
2018-07-17T15:22:04.156Z,31.53
2018-07-17T15:24:33.322Z,31.39
2018-07-17T15:27:02.587Z,31.16
2018-07-17T15:29:31.817Z,30.65
2018-07-17T15:32:01.113Z,30.50
2018-07-17T15:34:30.384Z,31.18
2018-07-17T15:36:59.523Z,30.82
2018-07-17T15:39:28.678Z,30.48
2018-07-17T15:41:57.945Z,30.72
2018-07-17T15:44:27.201Z,30.57
2018-07-17T15:46:56.427Z,30.16
2018-07-17T15:49:25.806Z,30.64
2018-07-17T15:51:55.155Z,30.50
2018-07-17T15:54:24.471Z,29.84
2018-07-17T15:56:53.512Z,29.69
2018-07-17T15:59:23.495Z,29.43
2018-07-17T16:01:52.771Z,29.72
2018-07-17T16:04:21.771Z,29.93
2018-07-17T16:06:51.351Z,30.69
2018-07-17T16:09:20.538Z,30.00
2018-07-17T16:11:49.628Z,30.70
2018-07-17T16:14:19.245Z,30.61
2018-07-17T16:16:48.183Z,30.03
2018-07-17T16:19:17.295Z,30.38
2018-07-17T16:21:46.525Z,29.30
2018-07-17T16:24:15.790Z,29.25
2018-07-17T16:26:44.926Z,29.20
2018-07-17T16:29:14.344Z,29.47
2018-07-17T16:31:43.729Z,29.02
2018-07-17T16:34:12.779Z,28.90
2018-07-17T16:36:42.051Z,29.19
2018-07-17T16:39:11.384Z,29.05
2018-07-17T16:41:40.622Z,28.73
2018-07-17T16:44:09.893Z,28.57
2018-07-17T16:46:39.114Z,28.20
2018-07-17T16:49:08.400Z,28.07
2018-07-17T16:51:37.603Z,27.73
2018-07-17T16:54:06.846Z,27.71
2018-07-17T16:56:36.080Z,27.66
2018-07-17T16:59:05.304Z,27.55
2018-07-17T17:01:34.740Z,27.42
2018-07-17T17:04:03.885Z,27.12
2018-07-17T17:06:33.097Z,26.87
2018-07-17T17:09:02.453Z,26.92
2018-07-17T17:11:31.899Z,26.86
2018-07-17T17:14:01.096Z,26.64
2018-07-17T17:16:30.310Z,26.43
2018-07-17T17:18:59.576Z,26.43
2018-07-17T17:21:28.695Z,26.40
2018-07-17T17:23:57.908Z,26.29
2018-07-17T17:26:27.319Z,25.93
2018-07-17T17:28:56.606Z,26.02
2018-07-17T17:31:25.910Z,25.77
2018-07-17T17:33:55.047Z,25.71
2018-07-17T17:36:24.722Z,25.70
2018-07-17T17:38:53.882Z,25.67
2018-07-17T17:41:23.112Z,25.56
2018-07-17T17:43:52.279Z,25.62
2018-07-17T17:46:21.988Z,25.60
2018-07-17T17:48:51.173Z,25.51
2018-07-17T17:51:20.515Z,25.59
2018-07-17T17:53:49.682Z,25.48
2018-07-17T17:56:18.909Z,25.41
2018-07-17T17:58:48.165Z,25.33
2018-07-17T18:01:17.346Z,25.23
2018-07-17T18:03:46.502Z,25.18
2018-07-17T18:06:15.692Z,25.20
2018-07-17T18:08:44.880Z,25.21
2018-07-17T18:11:14.002Z,25.06
2018-07-17T18:13:43.888Z,24.96
2018-07-17T18:16:13.100Z,24.91
2018-07-17T18:18:42.275Z,24.83
2018-07-17T18:21:11.536Z,24.87
2018-07-17T18:23:40.781Z,24.81
2018-07-17T18:26:10.021Z,24.79
2018-07-17T18:28:39.156Z,24.65
2018-07-17T18:31:08.683Z,24.55
2018-07-17T18:33:37.862Z,24.70
2018-07-17T18:36:07.163Z,24.60
2018-07-17T18:38:36.139Z,24.52
2018-07-17T18:41:05.388Z,24.39
2018-07-17T18:43:34.579Z,24.34
2018-07-17T18:46:03.811Z,24.36
2018-07-17T18:48:33.157Z,24.34
2018-07-17T18:51:02.484Z,24.26
2018-07-17T18:53:32.242Z,24.20
2018-07-17T18:56:01.508Z,24.10
2018-07-17T18:58:30.932Z,24.18
2018-07-17T19:01:00.395Z,24.10
2018-07-17T19:03:29.498Z,23.94
2018-07-17T19:05:58.647Z,23.94
2018-07-17T19:08:28.045Z,23.87
2018-07-17T19:10:57.364Z,23.92
2018-07-17T19:13:26.576Z,23.82
2018-07-17T19:15:55.804Z,23.74
2018-07-17T19:18:24.976Z,23.69
2018-07-17T19:20:54.228Z,23.67
2018-07-17T19:23:23.592Z,23.61
2018-07-17T19:25:53.024Z,23.61
2018-07-17T19:28:22.287Z,23.59
2018-07-17T19:30:52.335Z,23.56
2018-07-17T19:33:21.496Z,23.48
2018-07-17T19:35:50.725Z,23.44
2018-07-17T19:38:19.993Z,23.42
2018-07-17T19:40:49.241Z,23.41
2018-07-17T19:43:18.652Z,23.40
2018-07-17T19:45:47.703Z,23.34
2018-07-17T19:48:17.064Z,23.26
2018-07-17T19:50:46.344Z,23.22
2018-07-17T19:53:15.591Z,23.23
2018-07-17T19:55:44.879Z,23.19
2018-07-17T19:58:14.094Z,23.16
2018-07-17T20:00:43.294Z,23.10
2018-07-17T20:03:12.490Z,23.10
2018-07-17T20:05:42.713Z,23.07
2018-07-17T20:08:11.962Z,23.01
2018-07-17T20:10:41.074Z,22.92
2018-07-17T20:13:10.314Z,22.89
2018-07-17T20:15:39.344Z,22.92
2018-07-17T20:18:09.728Z,22.85
2018-07-17T20:20:38.995Z,22.86
2018-07-17T20:23:08.202Z,22.80
2018-07-17T20:25:37.829Z,22.79
2018-07-17T20:28:06.947Z,22.78
2018-07-17T20:30:36.356Z,22.79
2018-07-17T20:33:06.204Z,22.76
2018-07-17T20:35:35.553Z,22.70
2018-07-17T20:38:04.835Z,22.72
2018-07-17T20:40:34.114Z,22.66
2018-07-17T20:43:03.419Z,22.62
2018-07-17T20:45:32.535Z,22.65
2018-07-17T20:48:02.562Z,22.62
2018-07-17T20:50:31.763Z,22.59
2018-07-17T20:53:01.182Z,22.52
2018-07-17T20:55:30.292Z,22.46
2018-07-17T20:58:00.495Z,22.45
2018-07-17T21:00:29.612Z,22.42
2018-07-17T21:02:58.795Z,22.40
2018-07-17T21:05:27.900Z,22.35
2018-07-17T21:07:57.121Z,22.27
2018-07-17T21:10:26.168Z,22.20
2018-07-17T21:12:55.483Z,22.14
2018-07-17T21:15:24.699Z,22.16
2018-07-17T21:17:54.576Z,22.16
2018-07-17T21:20:23.995Z,22.09
2018-07-17T21:22:57.179Z,22.07
2018-07-17T21:25:26.716Z,22.07
2018-07-17T21:27:55.872Z,22.08
2018-07-17T21:30:25.274Z,22.03
2018-07-17T21:32:55.060Z,22.00
2018-07-17T21:35:24.296Z,22.04
2018-07-17T21:37:53.471Z,21.94
2018-07-17T21:40:22.661Z,22.00
2018-07-17T21:42:53.278Z,21.97
2018-07-17T21:45:23.345Z,21.93
2018-07-17T21:47:52.334Z,21.93
2018-07-17T21:50:22.222Z,21.90
2018-07-17T21:52:51.315Z,21.92
2018-07-17T21:55:20.655Z,21.90
2018-07-17T21:57:50.698Z,21.84
2018-07-17T22:00:19.880Z,21.86
2018-07-17T22:02:49.686Z,21.82
2018-07-17T22:05:18.964Z,21.82
2018-07-17T22:07:48.173Z,21.80
2018-07-17T22:10:17.559Z,21.77
2018-07-17T22:12:46.842Z,21.66
2018-07-17T22:15:15.965Z,21.63
2018-07-17T22:17:45.832Z,21.61
2018-07-17T22:20:14.972Z,21.59
2018-07-17T22:22:44.238Z,21.53
2018-07-17T22:25:13.578Z,21.42
2018-07-17T22:27:42.770Z,21.43
2018-07-17T22:30:12.268Z,21.37
2018-07-17T22:32:41.383Z,21.30
2018-07-17T22:35:10.899Z,21.32
2018-07-17T22:37:40.267Z,21.27
2018-07-17T22:40:09.787Z,21.23
2018-07-17T22:42:40.931Z,21.17
2018-07-17T22:45:10.644Z,21.09
2018-07-17T22:47:40.140Z,21.09
2018-07-17T22:50:09.652Z,21.05
2018-07-17T22:52:38.719Z,21.02
2018-07-17T22:55:07.974Z,20.99
2018-07-17T22:57:38.609Z,20.91
2018-07-17T23:00:10.587Z,20.84
2018-07-17T23:02:42.611Z,20.86
2018-07-17T23:05:14.122Z,20.87
2018-07-17T23:07:43.818Z,20.85
2018-07-17T23:10:12.913Z,20.86
2018-07-17T23:12:42.155Z,20.87
2018-07-17T23:15:11.348Z,20.87
2018-07-17T23:17:40.415Z,20.85
2018-07-17T23:20:09.647Z,20.80
2018-07-17T23:22:50.758Z,20.80
2018-07-17T23:25:20.718Z,20.72
2018-07-17T23:27:50.267Z,20.69
2018-07-17T23:30:19.649Z,20.68
2018-07-17T23:32:49.892Z,20.63
2018-07-17T23:35:20.053Z,20.63
2018-07-17T23:37:49.232Z,20.63
2018-07-17T23:40:18.444Z,20.58
2018-07-17T23:42:47.684Z,20.57
2018-07-17T23:45:17.489Z,20.56
2018-07-17T23:47:47.531Z,20.58
2018-07-17T23:50:16.825Z,20.56
2018-07-17T23:52:45.994Z,20.50
2018-07-17T23:55:15.227Z,20.62
2018-07-17T23:57:44.471Z,20.55
